createdAt,value
2019-01-11T00:02:26.381Z,2.90
2019-01-11T00:05:15.736Z,3.10
2019-01-11T00:08:05.305Z,3.10
2019-01-11T00:10:54.663Z,3.10
2019-01-11T00:13:44.033Z,3.20
2019-01-11T00:16:33.401Z,3.30
2019-01-11T00:19:22.685Z,3.20
2019-01-11T00:22:12.076Z,3.10
2019-01-11T00:25:01.432Z,3.10
2019-01-11T00:27:50.778Z,3.00
2019-01-11T00:30:40.149Z,3.10
2019-01-11T00:33:29.463Z,3.10
2019-01-11T00:36:11.445Z,3.10
2019-01-11T00:38:53.837Z,3.10
2019-01-11T00:41:36.233Z,3.10
2019-01-11T00:44:18.029Z,3.10
2019-01-11T00:46:59.756Z,3.00
2019-01-11T00:49:43.756Z,3.00
2019-01-11T00:52:26.165Z,2.90
2019-01-11T00:55:08.225Z,2.90
2019-01-11T00:57:50.417Z,3.00
2019-01-11T01:00:32.775Z,3.00
2019-01-11T01:03:14.612Z,3.00
2019-01-11T01:05:56.681Z,2.80
2019-01-11T01:08:39.129Z,2.80
2019-01-11T01:11:21.400Z,2.70
2019-01-11T01:14:03.251Z,2.60
2019-01-11T01:16:45.424Z,2.80
2019-01-11T01:19:26.997Z,3.00
2019-01-11T01:22:09.268Z,2.90
2019-01-11T01:24:51.731Z,2.80
2019-01-11T01:27:34.144Z,2.70
2019-01-11T01:30:16.141Z,2.70
2019-01-11T01:32:57.715Z,2.70
2019-01-11T01:35:39.889Z,2.70
2019-01-11T01:38:22.078Z,2.70
2019-01-11T01:41:04.038Z,2.70
2019-01-11T01:43:46.262Z,2.80
2019-01-11T01:46:28.457Z,2.70
2019-01-11T01:49:10.704Z,2.70
2019-01-11T01:51:52.441Z,2.80
2019-01-11T01:54:34.224Z,2.80
2019-01-11T01:57:16.369Z,2.80
2019-01-11T01:59:58.551Z,2.80
2019-01-11T02:02:40.816Z,2.80
2019-01-11T02:05:23.173Z,2.90
2019-01-11T02:08:05.227Z,2.90
2019-01-11T02:10:47.041Z,2.90
2019-01-11T02:13:28.996Z,2.90
2019-01-11T02:16:10.809Z,2.80
2019-01-11T02:18:53.128Z,2.80
2019-01-11T02:21:34.752Z,2.70
2019-01-11T02:24:16.517Z,2.60
2019-01-11T02:26:57.897Z,2.70
2019-01-11T02:29:40.324Z,2.70
2019-01-11T02:32:21.819Z,2.60
2019-01-11T02:35:03.205Z,2.50
2019-01-11T02:37:44.767Z,2.50
2019-01-11T02:40:26.237Z,2.60
2019-01-11T02:43:08.549Z,2.60
2019-01-11T02:45:50.480Z,2.50
2019-01-11T02:48:32.439Z,2.50
2019-01-11T02:51:14.030Z,2.50
2019-01-11T02:53:56.348Z,2.50
2019-01-11T02:56:37.997Z,2.50
2019-01-11T02:59:20.073Z,2.60
2019-01-11T03:02:01.636Z,2.60
2019-01-11T03:04:43.517Z,2.60
2019-01-11T03:07:25.097Z,2.60
2019-01-11T03:10:07.506Z,2.50
2019-01-11T03:12:49.765Z,2.60
2019-01-11T03:15:31.585Z,2.60
2019-01-11T03:18:13.841Z,2.50
2019-01-11T03:20:55.569Z,2.50
2019-01-11T03:23:37.433Z,2.50
2019-01-11T03:26:19.670Z,2.60
2019-01-11T03:29:00.092Z,2.60
2019-01-11T03:31:49.375Z,2.60
2019-01-11T03:34:32.161Z,2.50
2019-01-11T03:37:14.476Z,2.50
2019-01-11T03:39:58.097Z,2.60
2019-01-11T03:42:40.447Z,2.60
2019-01-11T03:45:21.901Z,2.60
2019-01-11T03:48:03.453Z,2.50
2019-01-11T03:50:45.778Z,2.50
2019-01-11T03:53:27.331Z,2.50
2019-01-11T03:56:09.496Z,2.40
2019-01-11T03:58:50.960Z,2.50
2019-01-11T04:01:32.678Z,2.50
2019-01-11T04:04:14.792Z,2.50
2019-01-11T04:06:57.117Z,2.40
2019-01-11T04:09:39.025Z,2.50
2019-01-11T04:12:21.254Z,2.60
2019-01-11T04:15:03.221Z,2.60
2019-01-11T04:17:46.972Z,2.70
2019-01-11T04:20:29.032Z,2.70
2019-01-11T04:23:11.257Z,2.70
2019-01-11T04:25:53.667Z,2.70
2019-01-11T04:28:37.839Z,2.70
2019-01-11T04:31:19.820Z,2.70
2019-01-11T04:34:01.730Z,2.80
2019-01-11T04:36:43.198Z,2.70
2019-01-11T04:39:24.921Z,2.70
2019-01-11T04:42:07.142Z,2.80
2019-01-11T04:44:49.598Z,2.80
2019-01-11T04:47:31.726Z,2.80
2019-01-11T04:50:13.494Z,2.70
2019-01-11T04:52:55.642Z,2.70
2019-01-11T04:55:37.538Z,2.70
2019-01-11T05:01:19.405Z,2.80
2019-01-11T05:06:59.985Z,2.80
2019-01-11T05:09:42.072Z,2.80
2019-01-11T05:12:23.520Z,2.80
2019-01-11T05:15:05.820Z,2.80
2019-01-11T05:17:48.188Z,2.70
2019-01-11T05:20:30.098Z,2.80
2019-01-11T05:23:11.649Z,2.80
2019-01-11T05:25:54.121Z,2.80
2019-01-11T05:31:25.241Z,2.70
2019-01-11T05:34:07.264Z,2.80
2019-01-11T05:36:49.361Z,2.80
2019-01-11T05:39:31.280Z,2.80
2019-01-11T05:42:12.894Z,2.90
2019-01-11T05:44:55.084Z,2.80
2019-01-11T05:47:37.342Z,2.80
2019-01-11T05:50:24.034Z,2.80
2019-01-11T05:56:35.141Z,2.50
2019-01-11T05:59:17.082Z,2.40
2019-01-11T06:01:59.473Z,2.50
2019-01-11T06:04:44.871Z,2.60
2019-01-11T06:07:46.167Z,2.60
2019-01-11T06:10:28.016Z,2.60
2019-01-11T06:13:10.116Z,2.50
2019-01-11T06:15:52.282Z,2.50
2019-01-11T06:18:34.416Z,2.50
2019-01-11T06:21:16.388Z,2.50
2019-01-11T06:23:57.943Z,2.50
2019-01-11T06:26:40.828Z,2.60
2019-01-11T06:29:23.108Z,2.60
2019-01-11T06:32:05.007Z,2.70
2019-01-11T06:34:47.496Z,2.60
2019-01-11T06:37:29.848Z,2.60
2019-01-11T06:40:11.417Z,2.50
2019-01-11T06:42:53.129Z,2.50
2019-01-11T06:45:35.371Z,2.40
2019-01-11T06:48:36.647Z,2.40
2019-01-11T06:51:19.101Z,2.50
2019-01-11T06:54:00.620Z,2.50
2019-01-11T06:56:42.119Z,2.50
2019-01-11T06:59:24.481Z,2.50
2019-01-11T07:02:06.713Z,2.60
2019-01-11T07:04:49.161Z,2.60
2019-01-11T07:07:30.974Z,2.60
2019-01-11T07:10:12.997Z,2.70
2019-01-11T07:12:55.012Z,2.80
2019-01-11T07:15:37.335Z,2.80
2019-01-11T07:18:18.921Z,2.60
2019-01-11T07:21:01.237Z,2.70
2019-01-11T07:23:43.385Z,2.70
2019-01-11T07:26:25.589Z,2.60
2019-01-11T07:29:07.656Z,2.60
2019-01-11T07:31:50.090Z,2.60
2019-01-11T07:34:32.239Z,2.70
2019-01-11T07:37:14.642Z,2.70
2019-01-11T07:39:58.735Z,2.70
2019-01-11T07:42:40.649Z,2.70
2019-01-11T07:45:22.587Z,2.80
2019-01-11T07:48:04.821Z,2.80
2019-01-11T07:50:49.403Z,2.80
2019-01-11T07:53:30.589Z,2.80
2019-01-11T07:56:12.887Z,2.70
2019-01-11T07:58:54.792Z,2.70
2019-01-11T08:01:37.076Z,2.70
2019-01-11T08:04:19.109Z,2.70
2019-01-11T08:07:01.313Z,2.70
2019-01-11T08:09:43.101Z,2.70
2019-01-11T08:12:25.005Z,2.70
2019-01-11T08:15:06.965Z,2.80
2019-01-11T08:17:48.788Z,2.70
2019-01-11T08:20:31.572Z,2.80
2019-01-11T08:23:13.259Z,2.70
2019-01-11T08:25:55.475Z,2.60
2019-01-11T08:28:37.579Z,2.70
2019-01-11T08:31:19.910Z,2.80
2019-01-11T08:34:02.011Z,2.70
2019-01-11T08:36:43.933Z,2.60
2019-01-11T08:39:32.264Z,2.70
2019-01-11T08:42:08.997Z,2.80
2019-01-11T08:44:51.321Z,2.80
2019-01-11T08:47:33.713Z,2.80
2019-01-11T08:50:15.294Z,2.80
2019-01-11T08:52:57.396Z,2.80
2019-01-11T08:55:39.524Z,2.80
2019-01-11T08:58:21.672Z,2.80
2019-01-11T09:01:03.828Z,2.80
2019-01-11T09:03:46.212Z,2.80
2019-01-11T09:06:28.026Z,2.80
2019-01-11T09:09:08.817Z,2.80
2019-01-11T09:11:58.084Z,2.80
2019-01-11T09:14:48.282Z,2.90
2019-01-11T09:21:15.796Z,2.80
2019-01-11T09:24:05.151Z,2.60
2019-01-11T09:26:54.516Z,2.60
2019-01-11T09:32:59.795Z,2.70
2019-01-11T09:35:49.148Z,2.70
2019-01-11T09:38:38.424Z,2.70
2019-01-11T09:41:27.750Z,2.70
2019-01-11T09:44:17.016Z,2.80
2019-01-11T09:47:06.318Z,2.70
2019-01-11T09:49:55.608Z,2.90
2019-01-11T09:53:04.302Z,2.90
2019-01-11T09:55:53.697Z,3.10
2019-01-11T09:58:43.045Z,3.10
2019-01-11T10:01:32.445Z,3.10
2019-01-11T10:07:32.406Z,3.10
2019-01-11T10:10:14.525Z,3.20
2019-01-11T10:12:56.893Z,3.30
2019-01-11T10:15:39.089Z,3.20
2019-01-11T10:18:21.153Z,3.30
2019-01-11T10:21:03.209Z,3.20
2019-01-11T10:23:45.549Z,3.20
2019-01-11T10:26:27.792Z,3.10
2019-01-11T10:29:09.689Z,3.10
2019-01-11T10:31:51.690Z,3.20
2019-01-11T10:34:33.589Z,3.10
2019-01-11T10:37:15.274Z,3.20
2019-01-11T10:39:57.710Z,3.30
2019-01-11T10:42:39.952Z,3.10
2019-01-11T10:45:22.105Z,3.20
2019-01-11T10:48:04.161Z,3.10
2019-01-11T10:50:45.573Z,3.20
2019-01-11T10:53:27.764Z,3.20
2019-01-11T10:56:12.065Z,3.30
2019-01-11T10:58:54.302Z,3.30
2019-01-11T11:01:36.105Z,3.40
2019-01-11T11:04:18.056Z,3.50
2019-01-11T11:07:00.405Z,3.60
2019-01-11T11:09:42.634Z,3.60
2019-01-11T11:12:24.917Z,3.60
2019-01-11T11:15:06.579Z,3.60
2019-01-11T11:17:48.380Z,3.50
2019-01-11T11:20:30.732Z,3.60
2019-01-11T11:23:12.774Z,3.50
2019-01-11T11:25:54.298Z,3.50
2019-01-11T11:28:36.786Z,3.50
2019-01-11T11:31:19.143Z,3.50
2019-01-11T11:34:00.629Z,3.50
2019-01-11T11:36:42.921Z,3.50
2019-01-11T11:39:25.074Z,3.40
2019-01-11T11:42:06.834Z,3.40
2019-01-11T11:44:48.360Z,3.40
2019-01-11T11:47:29.867Z,3.60
2019-01-11T11:50:12.292Z,3.50
2019-01-11T11:52:54.449Z,3.60
2019-01-11T11:55:36.674Z,3.60
2019-01-11T11:58:18.654Z,3.60
2019-01-11T12:01:00.714Z,3.60
2019-01-11T12:03:42.602Z,3.70
2019-01-11T12:06:24.894Z,3.50
2019-01-11T12:09:06.526Z,3.50
2019-01-11T12:11:48.241Z,3.40
2019-01-11T12:14:30.019Z,3.20
2019-01-11T12:17:11.769Z,3.10
2019-01-11T12:19:57.018Z,3.20
2019-01-11T12:22:36.660Z,3.20
2019-01-11T12:25:18.758Z,3.30
2019-01-11T12:28:01.075Z,3.30
2019-01-11T12:30:43.285Z,3.40
2019-01-11T12:33:25.378Z,3.30
2019-01-11T12:36:07.883Z,3.20
2019-01-11T12:38:50.383Z,3.20
2019-01-11T12:41:32.602Z,3.20
2019-01-11T12:44:14.785Z,3.20
2019-01-11T12:46:57.193Z,3.00
2019-01-11T12:49:39.374Z,3.10
2019-01-11T12:52:21.688Z,3.10
2019-01-11T12:55:03.577Z,3.10
2019-01-11T12:57:45.384Z,3.10
2019-01-11T13:00:27.484Z,3.00
2019-01-11T13:03:07.906Z,3.10
2019-01-11T13:05:57.268Z,3.00
2019-01-11T13:08:46.625Z,3.10
2019-01-11T13:11:35.893Z,3.10
2019-01-11T13:14:25.169Z,3.00
2019-01-11T13:17:14.532Z,3.10
2019-01-11T13:20:04.161Z,3.10
2019-01-11T13:22:53.661Z,3.10
2019-01-11T13:25:43.027Z,3.10
2019-01-11T13:28:32.438Z,2.90
2019-01-11T13:31:21.798Z,2.80
2019-01-11T13:34:11.149Z,2.70
2019-01-11T13:37:00.531Z,2.70
2019-01-11T13:39:49.802Z,2.80
2019-01-11T13:42:39.167Z,3.00
2019-01-11T13:45:20.660Z,3.00
2019-01-11T13:48:03.169Z,3.10
2019-01-11T13:50:45.239Z,3.00
2019-01-11T13:53:27.394Z,2.90
2019-01-11T13:56:09.577Z,2.80
2019-01-11T13:58:51.707Z,2.80
2019-01-11T14:01:33.695Z,3.00
2019-01-11T14:04:15.781Z,3.00
2019-01-11T14:06:57.754Z,2.90
2019-01-11T14:09:39.698Z,2.90
2019-01-11T14:12:21.377Z,2.80
2019-01-11T14:15:03.494Z,2.90
2019-01-11T14:17:45.447Z,2.90
2019-01-11T14:20:27.482Z,2.80
2019-01-11T14:23:09.553Z,2.70
2019-01-11T14:25:51.524Z,2.90
2019-01-11T14:28:33.785Z,2.80
2019-01-11T14:34:48.493Z,2.80
2019-01-11T14:37:32.417Z,2.80
2019-01-11T14:40:14.082Z,2.90
2019-01-11T14:42:56.496Z,2.90
2019-01-11T14:45:39.265Z,2.90
2019-01-11T14:48:21.567Z,2.90
2019-01-11T14:51:03.530Z,2.90
2019-01-11T14:53:45.514Z,2.90
2019-01-11T14:56:27.710Z,2.90
2019-01-11T14:59:09.389Z,2.80
2019-01-11T15:04:34.227Z,2.80
2019-01-11T15:07:16.414Z,2.70
2019-01-11T15:09:58.723Z,2.80
2019-01-11T15:12:40.673Z,2.80
2019-01-11T15:15:22.456Z,2.90
2019-01-11T15:18:04.412Z,2.70
2019-01-11T15:20:46.578Z,2.70
2019-01-11T15:23:28.643Z,2.80
2019-01-11T15:26:10.646Z,2.80
2019-01-11T15:28:52.601Z,2.80
2019-01-11T15:31:34.414Z,2.70
2019-01-11T15:34:16.860Z,2.80
2019-01-11T15:36:59.160Z,2.70
2019-01-11T15:39:41.256Z,2.70
2019-01-11T15:42:23.248Z,2.70
2019-01-11T15:45:05.430Z,2.70
2019-01-11T15:47:47.506Z,2.70
2019-01-11T15:50:29.508Z,2.60
2019-01-11T15:53:11.511Z,2.70
2019-01-11T15:55:53.686Z,2.80
2019-01-11T15:58:35.716Z,2.80
2019-01-11T16:01:17.814Z,2.70
2019-01-11T16:04:01.362Z,2.70
2019-01-11T16:06:42.962Z,2.70
2019-01-11T16:09:25.116Z,2.60
2019-01-11T16:12:06.975Z,2.60
2019-01-11T16:14:49.029Z,2.50
2019-01-11T16:17:30.844Z,2.50
2019-01-11T16:20:12.361Z,2.60
2019-01-11T16:22:54.298Z,2.60
2019-01-11T16:25:36.657Z,2.70
2019-01-11T16:28:18.902Z,2.70
2019-01-11T16:31:00.397Z,2.60
2019-01-11T16:33:42.643Z,2.40
2019-01-11T16:36:24.829Z,2.60
2019-01-11T16:39:06.826Z,2.60
2019-01-11T16:41:48.785Z,2.70
2019-01-11T16:44:30.793Z,2.60
2019-01-11T16:47:13.042Z,2.50
2019-01-11T16:49:54.850Z,2.60
2019-01-11T16:52:36.906Z,2.70
2019-01-11T16:55:19.144Z,2.60
2019-01-11T16:58:00.931Z,2.60
2019-01-11T17:00:42.508Z,2.60
2019-01-11T17:03:24.364Z,2.60
2019-01-11T17:06:05.962Z,2.50
2019-01-11T17:08:50.123Z,2.50
2019-01-11T17:11:31.673Z,2.60
2019-01-11T17:14:14.070Z,2.60
2019-01-11T17:16:56.353Z,2.50
2019-01-11T17:19:38.332Z,2.50
2019-01-11T17:22:19.870Z,2.50
2019-01-11T17:25:02.165Z,2.50
2019-01-11T17:27:44.173Z,2.60
2019-01-11T17:30:26.335Z,2.70
2019-01-11T17:33:08.770Z,2.80
2019-01-11T17:35:50.607Z,2.70
2019-01-11T17:38:32.700Z,2.60
2019-01-11T17:41:14.678Z,2.60
2019-01-11T17:43:56.641Z,2.70
2019-01-11T17:46:38.227Z,2.60
2019-01-11T17:49:20.440Z,2.60
2019-01-11T17:52:02.076Z,2.70
2019-01-11T17:54:44.313Z,2.70
2019-01-11T17:57:26.461Z,2.70
2019-01-11T18:00:08.944Z,2.70
2019-01-11T18:02:50.561Z,2.70
2019-01-11T18:05:32.419Z,2.70
2019-01-11T18:08:14.650Z,2.60
2019-01-11T18:10:56.703Z,2.70
2019-01-11T18:13:38.677Z,2.70
2019-01-11T18:16:20.559Z,2.70
2019-01-11T18:19:02.158Z,2.80
2019-01-11T18:21:44.658Z,2.80
2019-01-11T18:24:26.474Z,2.70
2019-01-11T18:27:08.923Z,2.80
2019-01-11T18:29:51.279Z,2.90
2019-01-11T18:32:33.466Z,2.90
2019-01-11T18:35:15.013Z,2.80
2019-01-11T18:37:56.666Z,2.70
2019-01-11T18:40:38.723Z,2.80
2019-01-11T18:43:20.806Z,2.80
2019-01-11T18:46:03.191Z,2.80
2019-01-11T18:48:45.282Z,2.70
2019-01-11T18:51:27.421Z,2.80
2019-01-11T18:54:09.518Z,2.80
2019-01-11T18:56:51.525Z,2.80
2019-01-11T18:59:33.124Z,2.90
2019-01-11T19:02:14.686Z,2.90
2019-01-11T19:04:56.912Z,2.80
2019-01-11T19:07:45.640Z,2.90
2019-01-11T19:10:22.347Z,2.80
2019-01-11T19:13:04.300Z,2.80
2019-01-11T19:15:46.128Z,2.80
2019-01-11T19:18:28.601Z,2.90
2019-01-11T19:21:10.689Z,2.90
2019-01-11T19:23:52.533Z,3.00
2019-01-11T19:26:34.213Z,3.10
2019-01-11T19:29:16.550Z,3.10
2019-01-11T19:31:58.430Z,2.90
2019-01-11T19:34:40.641Z,2.90
2019-01-11T19:37:22.469Z,3.00
2019-01-11T19:40:04.488Z,3.10
2019-01-11T19:42:47.592Z,3.10
2019-01-11T19:45:29.240Z,3.10
2019-01-11T19:48:11.247Z,3.10
2019-01-11T19:50:53.476Z,3.10
2019-01-11T19:53:35.270Z,3.10
2019-01-11T19:56:17.498Z,3.20
2019-01-11T19:58:59.466Z,3.20
2019-01-11T20:01:41.444Z,3.10
2019-01-11T20:04:22.988Z,3.20
2019-01-11T20:07:04.933Z,3.20
2019-01-11T20:09:46.957Z,3.10
2019-01-11T20:12:29.048Z,3.10
2019-01-11T20:15:11.026Z,3.10
2019-01-11T20:17:52.786Z,3.10
2019-01-11T20:20:34.401Z,3.10
2019-01-11T20:23:16.722Z,3.10
2019-01-11T20:25:58.475Z,3.10
2019-01-11T20:28:40.447Z,3.10
2019-01-11T20:31:22.834Z,3.10
2019-01-11T20:34:05.336Z,3.00
2019-01-11T20:36:47.568Z,3.10
2019-01-11T20:39:29.469Z,3.00
2019-01-11T20:42:11.769Z,3.10
2019-01-11T20:44:55.508Z,3.10
2019-01-11T20:47:39.217Z,3.20
2019-01-11T20:50:21.138Z,3.20
2019-01-11T20:53:02.963Z,3.30
2019-01-11T20:55:45.038Z,3.30
2019-01-11T20:58:27.450Z,3.20
2019-01-11T21:01:10.004Z,3.20
2019-01-11T21:03:51.541Z,3.20
2019-01-11T21:06:33.622Z,3.20
2019-01-11T21:09:15.721Z,3.20
2019-01-11T21:11:57.528Z,3.20
2019-01-11T21:14:39.665Z,3.30
2019-01-11T21:17:21.814Z,3.40
2019-01-11T21:20:03.783Z,3.40
2019-01-11T21:22:45.639Z,3.40
2019-01-11T21:25:27.689Z,3.40
2019-01-11T21:28:09.990Z,3.40
2019-01-11T21:30:57.344Z,3.40
2019-01-11T21:33:36.225Z,3.40
2019-01-11T21:36:18.307Z,3.30
2019-01-11T21:38:59.960Z,3.30
2019-01-11T21:41:41.986Z,3.30
2019-01-11T21:44:24.472Z,3.20
2019-01-11T21:47:06.432Z,3.30
2019-01-11T21:49:48.874Z,3.30
2019-01-11T21:52:31.210Z,3.30
2019-01-11T21:55:13.724Z,3.30
2019-01-11T21:57:55.804Z,3.20
2019-01-11T22:00:38.196Z,3.30
2019-01-11T22:03:20.123Z,3.40
2019-01-11T22:06:01.965Z,3.40
2019-01-11T22:08:44.246Z,3.40
2019-01-11T22:14:58.988Z,3.40
2019-01-11T22:17:40.928Z,3.20
2019-01-11T22:20:22.998Z,3.20
2019-01-11T22:23:04.768Z,3.20
2019-01-11T22:25:46.807Z,3.20
2019-01-11T22:28:29.311Z,3.30
2019-01-11T22:31:15.292Z,3.40
2019-01-11T22:33:57.759Z,3.20
2019-01-11T22:36:39.825Z,3.30
2019-01-11T22:39:21.865Z,3.50
2019-01-11T22:42:03.969Z,3.40
2019-01-11T22:44:45.797Z,3.40
2019-01-11T22:47:27.953Z,3.50
2019-01-11T22:50:09.977Z,3.60
2019-01-11T22:52:52.508Z,3.60
2019-01-11T22:55:34.656Z,3.60
2019-01-11T22:58:16.733Z,3.50
2019-01-11T23:00:58.823Z,3.50
2019-01-11T23:03:40.698Z,3.50
2019-01-11T23:06:22.701Z,3.50
2019-01-11T23:09:04.578Z,3.60
2019-01-11T23:11:46.805Z,3.50
2019-01-11T23:14:28.780Z,3.50
2019-01-11T23:17:10.552Z,3.60
2019-01-11T23:19:52.333Z,3.60
2019-01-11T23:22:34.648Z,3.60
2019-01-11T23:25:16.186Z,3.70
2019-01-11T23:27:58.722Z,3.60
2019-01-11T23:30:40.638Z,3.70
2019-01-11T23:33:22.793Z,3.70
2019-01-11T23:36:05.100Z,3.60
2019-01-11T23:38:47.067Z,3.70
2019-01-11T23:41:29.515Z,3.70
2019-01-11T23:44:11.523Z,3.70
2019-01-11T23:46:53.661Z,3.60
2019-01-11T23:49:36.100Z,3.70
2019-01-11T23:52:18.057Z,3.70
2019-01-11T23:55:00.013Z,3.70
2019-01-11T23:57:42.431Z,3.70
